Time;durP1;ratioP1;P1;durP2;ratioP2;P2;SDS_P1;SDS_P2;PMS_P1;PMS_P2;Temp;Humidity;BMP_temperature;BMP_pressure;BME280_temperature;BME280_humidity;BME280_pressure;Samples;Min_cycle;Max_cycle;Signal;HPM_P1;HPM_P2
2022/03/24 00:01:57;;;;;;;;;117.75;105.75;12.20;35.30;;;;;;4958227;28;8783;-64
2022/03/24 00:04:24;;;;;;;;;107.75;98.50;12.10;35.40;;;;;;4958225;28;8804;-65
2022/03/24 00:06:49;;;;;;;;;104.50;99.00;12.50;34.90;;;;;;4958190;28;8796;-66
2022/03/24 00:09:16;;;;;;;;;99.00;93.50;12.60;34.50;;;;;;4958175;28;8792;-63
2022/03/24 00:11:41;;;;;;;;;103.50;98.00;12.50;34.40;;;;;;4958148;28;8772;-66
2022/03/24 00:14:08;;;;;;;;;110.25;102.00;12.60;34.50;;;;;;4958241;28;8924;-64
2022/03/24 00:16:34;;;;;;;;;108.00;102.00;12.60;34.60;;;;;;4958204;28;9545;-64
2022/03/24 00:19:00;;;;;;;;;96.00;90.25;12.40;34.60;;;;;;4957975;28;8875;-63
2022/03/24 00:21:26;;;;;;;;;86.75;74.00;11.80;35.50;;;;;;4957937;28;8780;-66
2022/03/24 00:23:52;;;;;;;;;92.25;82.00;11.70;36.00;;;;;;4958158;28;8883;-66
2022/03/24 00:26:18;;;;;;;;;89.00;80.00;12.10;35.50;;;;;;4957827;28;8823;-64
2022/03/24 00:28:44;;;;;;;;;94.00;85.75;12.10;34.80;;;;;;4957906;28;9487;-66
2022/03/24 00:31:10;;;;;;;;;110.00;104.25;12.00;35.00;;;;;;4957863;28;8777;-66
2022/03/24 00:33:38;;;;;;;;;136.25;126.25;11.90;35.60;;;;;;4958068;28;8748;-65
2022/03/24 00:36:05;;;;;;;;;136.25;124.75;11.40;37.00;;;;;;4957633;28;8816;-63
2022/03/24 00:38:31;;;;;;;;;142.25;131.00;11.40;37.40;;;;;;4957425;28;8812;-66
2022/03/24 00:40:57;;;;;;;;;164.00;149.00;11.60;37.00;;;;;;4957788;28;8799;-63
2022/03/24 00:43:23;;;;;;;;;174.50;162.00;11.70;37.10;;;;;;4957542;28;8764;-62
2022/03/24 00:45:51;;;;;;;;;159.75;146.00;11.60;37.30;;;;;;4956798;28;8803;-66
2022/03/24 00:48:17;;;;;;;;;151.50;139.25;11.00;38.70;;;;;;4957662;28;8862;-62
2022/03/24 00:50:44;;;;;;;;;170.75;157.00;11.00;39.00;;;;;;4957627;28;9539;-63
2022/03/24 00:53:11;;;;;;;;;161.75;145.50;11.40;37.90;;;;;;4957649;28;8769;-64
2022/03/24 00:55:39;;;;;;;;;162.00;152.25;11.40;37.90;;;;;;4957249;28;8814;-64
2022/03/24 00:58:05;;;;;;;;;169.00;156.25;11.50;37.60;;;;;;4957139;28;8788;-66
2022/03/24 01:00:32;;;;;;;;;172.75;163.50;11.60;37.40;;;;;;4957369;28;9545;-63
2022/03/24 01:02:58;;;;;;;;;177.25;159.00;11.60;37.40;;;;;;4957408;28;8765;-66
2022/03/24 01:05:27;;;;;;;;;186.00;169.50;11.70;37.00;;;;;;4957120;28;8798;-66
2022/03/24 01:07:55;;;;;;;;;194.00;180.75;11.80;36.80;;;;;;4957001;28;8772;-65
2022/03/24 01:10:21;;;;;;;;;184.50;172.75;11.60;37.30;;;;;;4957034;28;8804;-63
2022/03/24 01:12:49;;;;;;;;;185.50;168.75;11.50;37.30;;;;;;4956917;28;8831;-64
2022/03/24 01:15:18;;;;;;;;;209.00;190.75;11.10;38.40;;;;;;4956878;28;8808;-64
2022/03/24 01:17:44;;;;;;;;;195.75;180.50;10.60;39.50;;;;;;4957059;28;8847;-65
2022/03/24 01:20:12;;;;;;;;;187.75;173.75;10.10;40.40;;;;;;4956900;28;8788;-67
2022/03/24 01:22:38;;;;;;;;;189.75;174.00;9.60;42.50;;;;;;4956821;28;8773;-65
2022/03/24 01:25:08;;;;;;;;;171.50;155.75;9.10;43.80;;;;;;4956800;28;8838;-66
2022/03/24 01:27:34;;;;;;;;;199.25;179.50;9.60;42.80;;;;;;4956832;28;8903;-62
2022/03/24 01:30:01;;;;;;;;;190.75;174.25;10.20;41.30;;;;;;4957332;28;8930;-68
2022/03/24 01:32:27;;;;;;;;;179.50;175.50;10.70;40.60;;;;;;4956693;28;8796;-66
2022/03/24 01:34:57;;;;;;;;;187.00;173.50;10.70;40.10;;;;;;4956837;28;8870;-66
2022/03/24 01:37:23;;;;;;;;;178.25;169.75;10.90;39.70;;;;;;4956637;28;8795;-65
2022/03/24 01:39:52;;;;;;;;;173.75;162.75;10.90;39.40;;;;;;4956476;28;8919;-66
2022/03/24 01:42:19;;;;;;;;;173.75;161.00;10.10;40.80;;;;;;4956801;28;8795;-66
2022/03/24 01:44:46;;;;;;;;;152.00;138.00;10.00;41.30;;;;;;4956766;28;8792;-64
2022/03/24 01:47:13;;;;;;;;;146.50;139.00;9.70;41.70;;;;;;4956419;28;8780;-64
2022/03/24 01:49:49;;;;;;;;;162.00;153.25;9.80;41.50;;;;;;4956727;28;9580;-66
2022/03/24 01:52:16;;;;;;;;;180.50;159.00;10.10;41.50;;;;;;4956704;28;8780;-67
2022/03/24 01:54:45;;;;;;;;;151.75;130.00;10.50;40.50;;;;;;4956220;28;8887;-65
2022/03/24 01:57:12;;;;;;;;;155.25;141.00;10.60;40.00;;;;;;4956170;28;8796;-66
2022/03/24 01:59:39;;;;;;;;;151.75;137.00;10.70;40.00;;;;;;4956903;28;8800;-63
2022/03/24 02:02:07;;;;;;;;;161.75;145.25;10.70;39.70;;;;;;4956262;28;8777;-64
2022/03/24 02:04:35;;;;;;;;;151.50;140.75;10.80;39.60;;;;;;4956199;28;8768;-63
2022/03/24 02:07:01;;;;;;;;;161.00;152.00;10.80;39.20;;;;;;4956247;28;8804;-65
2022/03/24 02:09:27;;;;;;;;;157.50;139.50;10.90;39.20;;;;;;4939257;28;8863;-66
2022/03/24 02:11:53;;;;;;;;;126.50;115.00;11.00;38.90;;;;;;4956185;28;8783;-64
2022/03/24 02:14:19;;;;;;;;;117.00;110.75;10.70;38.80;;;;;;4956158;29;8768;-64
2022/03/24 02:16:48;;;;;;;;;118.50;109.50;9.40;41.70;;;;;;4956186;28;8792;-66
2022/03/24 02:19:21;;;;;;;;;114.25;107.25;9.80;41.30;;;;;;4956131;29;8838;-63
2022/03/24 02:21:50;;;;;;;;;106.25;101.75;9.90;41.10;;;;;;4956301;29;8776;-65
2022/03/24 02:24:17;;;;;;;;;114.75;106.75;10.10;40.50;;;;;;4956273;29;8883;-66
2022/03/24 02:26:45;;;;;;;;;106.00;100.50;10.30;40.20;;;;;;4956246;28;9451;-66
2022/03/24 02:29:12;;;;;;;;;95.00;89.00;10.60;39.60;;;;;;4956484;29;8812;-65
2022/03/24 02:31:40;;;;;;;;;94.75;84.00;10.30;39.60;;;;;;4956272;29;8753;-59
2022/03/24 02:36:53;;;;;;;;;100.75;88.50;10.10;39.70;;;;;;4955853;29;8757;-66
2022/03/24 02:39:19;;;;;;;;;98.50;89.00;10.30;39.50;;;;;;4955847;29;8903;-65
2022/03/24 02:41:53;;;;;;;;;102.00;93.25;10.20;39.60;;;;;;4956167;29;8768;-65
2022/03/24 02:44:22;;;;;;;;;108.50;97.25;9.80;40.50;;;;;;4956184;29;8761;-68
2022/03/24 02:46:50;;;;;;;;;96.75;89.00;9.60;41.00;;;;;;4955974;29;8807;-64
2022/03/24 02:49:22;;;;;;;;;112.00;103.25;9.40;41.80;;;;;;4955892;28;8761;-65
2022/03/24 02:51:50;;;;;;;;;114.75;104.00;9.20;42.50;;;;;;4955833;29;8799;-66
2022/03/24 02:54:16;;;;;;;;;106.50;96.00;9.40;42.00;;;;;;4956093;29;9407;-65
2022/03/24 02:56:43;;;;;;;;;107.50;102.25;9.30;41.70;;;;;;4955982;29;9462;-65
2022/03/24 02:59:10;;;;;;;;;107.25;96.50;9.30;41.80;;;;;;4956016;29;8796;-64
2022/03/24 03:01:41;;;;;;;;;103.50;90.75;9.10;42.50;;;;;;4956035;29;8785;-66
2022/03/24 03:04:08;;;;;;;;;97.50;86.50;8.90;43.30;;;;;;4955983;29;8878;-66
2022/03/24 03:06:34;;;;;;;;;96.50;86.00;8.80;43.10;;;;;;4955836;29;8769;-68
2022/03/24 03:09:03;;;;;;;;;93.25;82.75;9.20;42.50;;;;;;4957578;28;8772;-66
2022/03/24 03:11:33;;;;;;;;;90.00;76.50;9.50;41.40;;;;;;4942351;28;8797;-67
2022/03/24 03:14:02;;;;;;;;;92.50;85.50;9.50;41.00;;;;;;4959191;28;8772;-65
2022/03/24 03:16:28;;;;;;;;;87.75;73.25;9.60;41.10;;;;;;4959297;28;9462;-68
2022/03/24 03:18:55;;;;;;;;;93.00;78.25;9.50;41.30;;;;;;4959157;28;8868;-63
2022/03/24 03:21:22;;;;;;;;;90.50;73.50;9.40;41.70;;;;;;4959051;28;8870;-65
2022/03/24 03:23:48;;;;;;;;;86.50;71.25;9.50;41.30;;;;;;4959070;28;9438;-63
2022/03/24 03:26:18;;;;;;;;;85.25;70.50;9.30;41.90;;;;;;4958345;28;8797;-66
2022/03/24 03:28:44;;;;;;;;;90.00;70.75;9.70;42.30;;;;;;4958674;28;8935;-61
2022/03/24 03:31:10;;;;;;;;;87.00;73.25;9.40;41.20;;;;;;4959207;28;8772;-63
2022/03/24 03:33:36;;;;;;;;;78.50;61.75;8.80;42.80;;;;;;4959101;28;9427;-67
2022/03/24 03:36:03;;;;;;;;;81.75;65.25;8.80;44.70;;;;;;4958761;28;8973;-65
2022/03/24 03:38:30;;;;;;;;;88.25;71.75;8.80;43.20;;;;;;4958566;28;8804;-65
2022/03/24 03:40:56;;;;;;;;;80.00;66.00;9.20;42.70;;;;;;4958849;28;8745;-66
2022/03/24 03:43:23;;;;;;;;;87.00;73.25;9.50;41.90;;;;;;4958765;28;8773;-65
2022/03/24 03:45:49;;;;;;;;;86.25;67.50;9.50;41.60;;;;;;4958680;28;8784;-68
2022/03/24 03:48:15;;;;;;;;;83.25;64.25;9.40;41.80;;;;;;4958883;28;9541;-65
2022/03/24 03:50:41;;;;;;;;;86.50;66.00;10.10;40.50;;;;;;4958864;28;8880;-68
2022/03/24 03:53:08;;;;;;;;;91.25;83.75;10.30;39.70;;;;;;4958979;28;8764;-64
2022/03/24 03:55:37;;;;;;;;;115.00;106.00;10.20;39.30;;;;;;4958453;28;8800;-67
2022/03/24 03:58:04;;;;;;;;;118.25;110.25;9.60;40.90;;;;;;4958455;28;8856;-65
2022/03/24 04:03:15;;;;;;;;;101.25;91.75;9.50;41.20;;;;;;4958471;28;8852;-67
2022/03/24 04:05:43;;;;;;;;;100.75;89.75;9.60;41.30;;;;;;4958291;28;8815;-65
2022/03/24 04:08:12;;;;;;;;;80.75;65.50;10.00;40.50;;;;;;4958225;28;8772;-68
2022/03/24 04:10:39;;;;;;;;;93.25;79.25;9.80;40.40;;;;;;4958190;28;8745;-67
2022/03/24 04:13:06;;;;;;;;;82.50;65.75;9.90;40.20;;;;;;4957987;28;8761;-68
2022/03/24 04:15:35;;;;;;;;;81.00;64.75;10.00;39.40;;;;;;4958077;28;8824;-67
2022/03/24 04:18:02;;;;;;;;;77.50;60.00;9.80;40.80;;;;;;4958037;28;8796;-65
2022/03/24 04:20:28;;;;;;;;;97.25;86.25;10.00;40.00;;;;;;4957912;28;8768;-67
2022/03/24 04:22:58;;;;;;;;;86.25;75.50;9.80;40.90;;;;;;4957961;28;8773;-65
2022/03/24 04:25:24;;;;;;;;;77.50;61.50;9.90;40.90;;;;;;4958236;28;8768;-65
2022/03/24 04:27:50;;;;;;;;;79.75;63.25;10.30;39.70;;;;;;4957947;28;9466;-67
2022/03/24 04:30:20;;;;;;;;;82.00;64.25;10.50;39.00;;;;;;4957828;28;9493;-66
2022/03/24 04:32:46;;;;;;;;;96.50;87.75;10.50;38.60;;;;;;4957853;28;8780;-67
2022/03/24 04:35:13;;;;;;;;;93.25;74.50;10.30;38.90;;;;;;4957648;28;8808;-66
2022/03/24 04:37:40;;;;;;;;;95.25;87.75;10.40;39.10;;;;;;4957782;28;8856;-64
2022/03/24 04:40:07;;;;;;;;;92.00;78.25;10.40;39.30;;;;;;4970560;28;8782;-69
2022/03/24 04:42:34;;;;;;;;;98.25;88.00;10.40;39.10;;;;;;4964704;28;8770;-64
2022/03/24 04:45:00;;;;;;;;;100.50;92.75;10.20;40.30;;;;;;4959112;28;8812;-67
2022/03/24 04:47:26;;;;;;;;;102.50;89.50;10.20;40.20;;;;;;4957556;28;8765;-65
2022/03/24 04:49:53;;;;;;;;;93.50;78.75;10.00;40.50;;;;;;4957687;28;8765;-64
2022/03/24 04:52:19;;;;;;;;;95.50;78.75;9.80;40.90;;;;;;4957246;28;8777;-63
2022/03/24 04:54:45;;;;;;;;;86.75;68.50;9.90;40.90;;;;;;4957203;28;8938;-66
2022/03/24 04:57:12;;;;;;;;;87.00;69.50;10.10;40.10;;;;;;4957346;28;8796;-63
2022/03/24 04:59:38;;;;;;;;;91.00;74.00;10.20;39.70;;;;;;4957169;28;9654;-70
2022/03/24 05:02:04;;;;;;;;;93.00;73.00;10.00;40.00;;;;;;4957246;28;8898;-65
2022/03/24 05:04:30;;;;;;;;;80.25;64.00;10.00;40.30;;;;;;4957449;28;8765;-66
2022/03/24 05:06:56;;;;;;;;;94.50;80.75;10.00;40.50;;;;;;4957170;28;8782;-65
2022/03/24 05:09:21;;;;;;;;;92.00;74.25;9.90;40.40;;;;;;4957081;28;8784;-64
2022/03/24 05:11:47;;;;;;;;;90.75;74.25;10.10;40.00;;;;;;4957035;28;8795;-68
2022/03/24 05:14:13;;;;;;;;;95.25;87.25;10.10;39.90;;;;;;4957235;28;8887;-64
2022/03/24 05:16:39;;;;;;;;;102.50;88.75;10.10;40.00;;;;;;4965411;28;8822;-66
2022/03/24 05:19:05;;;;;;;;;103.50;92.75;10.10;39.80;;;;;;4964848;28;8880;-67
2022/03/24 05:21:32;;;;;;;;;104.75;90.00;10.10;40.00;;;;;;4958488;28;8820;-64
2022/03/24 05:23:59;;;;;;;;;116.75;103.75;10.10;40.50;;;;;;4956747;28;8863;-61
2022/03/24 05:26:25;;;;;;;;;107.50;98.00;10.20;40.50;;;;;;4956847;28;8887;-63
2022/03/24 05:28:51;;;;;;;;;112.25;101.50;10.10;40.40;;;;;;4956939;28;8832;-64
2022/03/24 05:31:19;;;;;;;;;100.75;94.50;10.00;40.60;;;;;;4956240;28;8943;-62
2022/03/24 05:33:45;;;;;;;;;108.50;96.25;9.90;40.80;;;;;;4956931;28;8784;-65
2022/03/24 05:36:11;;;;;;;;;100.50;93.75;9.90;41.10;;;;;;4959882;28;8861;-63
2022/03/24 05:38:37;;;;;;;;;109.50;96.25;9.80;40.90;;;;;;4965700;28;8804;-63
2022/03/24 05:41:05;;;;;;;;;97.50;87.50;9.90;41.00;;;;;;4966307;28;8795;-63
2022/03/24 05:43:31;;;;;;;;;99.00;86.50;10.10;40.80;;;;;;4966800;28;8802;-61
2022/03/24 05:45:57;;;;;;;;;96.50;89.00;10.30;40.20;;;;;;4959726;28;8815;-66
2022/03/24 05:48:23;;;;;;;;;99.75;90.50;10.20;40.40;;;;;;4956380;28;8796;-63
2022/03/24 05:50:49;;;;;;;;;106.75;96.00;10.00;40.60;;;;;;4956404;28;8822;-63
2022/03/24 05:53:15;;;;;;;;;97.50;88.50;10.10;40.70;;;;;;4956431;28;8784;-63
2022/03/24 05:55:42;;;;;;;;;100.75;89.75;10.30;40.40;;;;;;4961864;28;8808;-58
2022/03/24 05:58:08;;;;;;;;;87.50;68.25;10.40;40.10;;;;;;4960443;28;8793;-62
2022/03/24 06:00:39;;;;;;;;;90.75;79.00;10.30;39.90;;;;;;4958327;28;9571;-64
2022/03/24 06:03:05;;;;;;;;;91.75;81.50;10.50;39.70;;;;;;4964775;28;8805;-62
2022/03/24 06:05:31;;;;;;;;;101.75;90.75;10.40;39.80;;;;;;4966266;28;8808;-63
2022/03/24 06:08:01;;;;;;;;;95.50;86.50;10.50;40.10;;;;;;4965898;28;8767;-59
2022/03/24 06:10:27;;;;;;;;;110.25;100.00;10.50;40.00;;;;;;4972801;28;8790;-61
2022/03/24 06:12:53;;;;;;;;;95.75;91.00;10.40;39.90;;;;;;4975280;28;8775;-60
2022/03/24 06:15:19;;;;;;;;;121.75;105.50;10.60;39.80;;;;;;4975232;28;8790;-62
2022/03/24 06:17:45;;;;;;;;;107.25;102.50;10.70;39.30;;;;;;4975411;28;8781;-61
2022/03/24 06:20:11;;;;;;;;;115.00;102.25;11.00;39.00;;;;;;4975283;28;8808;-62
2022/03/24 06:22:50;;;;;;;;;104.50;95.25;11.00;38.70;;;;;;4975338;28;8779;-61
2022/03/24 06:25:16;;;;;;;;;106.25;98.00;10.60;39.60;;;;;;4975522;28;8780;-61
2022/03/24 06:27:42;;;;;;;;;105.75;97.25;10.40;40.50;;;;;;4975585;28;8770;-61
2022/03/24 06:30:08;;;;;;;;;100.75;91.00;10.20;41.00;;;;;;4975722;28;8884;-61
2022/03/24 06:32:34;;;;;;;;;98.75;91.75;9.90;41.80;;;;;;4975278;28;8775;-59
2022/03/24 06:35:05;;;;;;;;;98.75;92.00;10.60;40.60;;;;;;4975468;28;8803;-62
2022/03/24 06:37:39;;;;;;;;;101.50;94.00;11.10;39.70;;;;;;4975269;28;8802;-61
2022/03/24 06:40:06;;;;;;;;;106.50;95.75;11.20;39.30;;;;;;4958119;28;8936;-62
2022/03/24 06:42:32;;;;;;;;;107.00;97.75;11.40;39.50;;;;;;4975282;28;8808;-60
2022/03/24 06:44:58;;;;;;;;;99.75;92.50;11.80;39.00;;;;;;4978928;28;8916;-61
2022/03/24 06:47:24;;;;;;;;;93.50;83.75;11.90;39.00;;;;;;4979037;28;8758;-67
2022/03/24 06:49:50;;;;;;;;;95.75;84.25;11.40;40.30;;;;;;4979059;28;8786;-65
2022/03/24 06:52:16;;;;;;;;;87.00;78.25;11.40;40.30;;;;;;4978883;28;8771;-67
2022/03/24 06:54:41;;;;;;;;;86.50;68.25;10.80;41.60;;;;;;4967426;28;8903;-60
2022/03/24 06:57:08;;;;;;;;;82.50;63.25;10.40;43.10;;;;;;4959776;28;8773;-61
2022/03/24 06:59:34;;;;;;;;;74.75;59.50;10.30;43.50;;;;;;4959819;28;9486;-61
2022/03/24 07:02:02;;;;;;;;;78.50;61.50;10.10;44.70;;;;;;4959681;28;8878;-60
2022/03/24 07:04:28;;;;;;;;;82.75;63.00;10.20;44.50;;;;;;4959352;28;8823;-61
2022/03/24 07:06:54;;;;;;;;;79.75;63.00;10.40;44.10;;;;;;4958787;28;8784;-61
2022/03/24 07:09:19;;;;;;;;;76.25;61.00;11.00;42.80;;;;;;4959277;28;8765;-62
2022/03/24 07:11:45;;;;;;;;;84.75;65.00;11.10;43.00;;;;;;4959257;28;8776;-61
2022/03/24 07:14:11;;;;;;;;;79.25;62.75;11.40;41.90;;;;;;4959228;28;8800;-61
2022/03/24 07:16:37;;;;;;;;;75.25;60.00;11.80;41.10;;;;;;4959090;28;8890;-61
2022/03/24 07:19:03;;;;;;;;;77.50;61.50;12.10;40.80;;;;;;4959452;28;8787;-61
2022/03/24 07:21:29;;;;;;;;;72.50;59.00;11.40;42.10;;;;;;4958648;28;8776;-61
2022/03/24 07:23:55;;;;;;;;;79.50;63.75;11.50;42.30;;;;;;4959133;28;8761;-61
2022/03/24 07:26:21;;;;;;;;;77.50;58.50;11.70;42.00;;;;;;4959268;28;8784;-61
2022/03/24 07:28:48;;;;;;;;;73.50;58.50;12.40;40.50;;;;;;4958994;28;9463;-60
2022/03/24 07:31:19;;;;;;;;;70.75;56.25;11.90;41.80;;;;;;4958982;28;8788;-61
2022/03/24 07:33:45;;;;;;;;;68.25;55.50;12.10;41.40;;;;;;4958946;28;8788;-61
2022/03/24 07:36:12;;;;;;;;;64.50;54.00;12.40;40.60;;;;;;4958470;28;8832;-61
2022/03/24 07:38:38;;;;;;;;;69.00;55.00;12.60;40.10;;;;;;4958605;28;8919;-61
2022/03/24 07:41:04;;;;;;;;;64.25;53.50;13.00;39.00;;;;;;4958992;28;8903;-62
2022/03/24 07:43:30;;;;;;;;;64.50;51.00;12.90;39.00;;;;;;4958745;28;8780;-62
2022/03/24 07:45:56;;;;;;;;;59.75;51.00;13.00;37.70;;;;;;4957657;28;8871;-61
2022/03/24 07:48:30;;;;;;;;;55.75;45.25;12.80;36.70;;;;;;4958308;28;8807;-62
2022/03/24 07:50:57;;;;;;;;;56.75;45.75;12.90;36.90;;;;;;4958330;28;8780;-61
2022/03/24 07:53:34;;;;;;;;;48.50;39.50;13.20;37.30;;;;;;4958343;28;8779;-61
2022/03/24 07:56:01;;;;;;;;;52.00;44.50;13.10;35.10;;;;;;4958251;28;8815;-61
2022/03/24 07:58:27;;;;;;;;;55.00;45.50;13.10;35.40;;;;;;4958385;28;8788;-60
2022/03/24 08:00:53;;;;;;;;;56.25;45.00;13.40;35.50;;;;;;4958630;28;9415;-60
2022/03/24 08:03:20;;;;;;;;;52.00;43.25;13.70;34.60;;;;;;4958305;28;8756;-60
2022/03/24 08:05:47;;;;;;;;;53.75;44.00;13.80;34.60;;;;;;4958584;28;8795;-61
2022/03/24 08:08:14;;;;;;;;;50.75;41.75;13.70;35.20;;;;;;4958134;28;8795;-61
2022/03/24 08:10:42;;;;;;;;;54.75;44.50;14.10;34.10;;;;;;4958485;28;8772;-61
2022/03/24 08:13:13;;;;;;;;;55.50;45.25;14.00;33.50;;;;;;4958228;28;8760;-61
2022/03/24 08:15:40;;;;;;;;;51.75;43.25;14.00;33.50;;;;;;4958345;28;8812;-61
2022/03/24 08:18:07;;;;;;;;;47.75;39.50;14.20;32.50;;;;;;4958151;28;8788;-61
2022/03/24 08:20:37;;;;;;;;;50.25;41.75;14.00;31.90;;;;;;4958166;28;8753;-61
2022/03/24 08:23:05;;;;;;;;;53.25;41.25;14.20;31.90;;;;;;4958015;28;8788;-60
2022/03/24 08:25:32;;;;;;;;;50.50;41.00;14.20;31.40;;;;;;4958238;28;9459;-60
2022/03/24 08:27:58;;;;;;;;;55.00;44.50;14.40;31.80;;;;;;4957701;28;8776;-61
2022/03/24 08:30:25;;;;;;;;;52.25;43.75;14.30;32.10;;;;;;4957675;28;8768;-61
2022/03/24 08:32:50;;;;;;;;;51.75;42.75;14.10;31.60;;;;;;4958035;28;8772;-61
2022/03/24 08:35:17;;;;;;;;;58.00;46.75;14.20;31.90;;;;;;4957930;28;8942;-61
2022/03/24 08:37:43;;;;;;;;;45.75;36.50;14.40;32.10;;;;;;4957461;28;8787;-61
2022/03/24 08:40:10;;;;;;;;;57.00;47.00;14.60;31.90;;;;;;4957957;28;9431;-61
2022/03/24 08:42:40;;;;;;;;;55.00;46.00;14.90;32.10;;;;;;4958078;28;8788;-61
2022/03/24 08:45:08;;;;;;;;;56.50;46.00;14.80;30.80;;;;;;4957827;28;8843;-60
2022/03/24 08:47:34;;;;;;;;;60.00;48.00;15.00;31.80;;;;;;4957770;28;8761;-61
2022/03/24 08:50:00;;;;;;;;;55.75;45.00;15.20;31.40;;;;;;4957585;28;8844;-60
2022/03/24 08:52:27;;;;;;;;;55.25;45.25;15.10;31.30;;;;;;4957327;28;8764;-61
2022/03/24 08:54:54;;;;;;;;;58.00;47.25;15.30;31.00;;;;;;4957129;28;8909;-61
2022/03/24 08:57:26;;;;;;;;;51.50;43.50;15.20;31.50;;;;;;4957370;28;8757;-61
2022/03/24 08:59:57;;;;;;;;;57.00;46.75;15.50;30.80;;;;;;4957298;28;8796;-61
2022/03/24 09:02:23;;;;;;;;;50.50;42.00;15.70;30.10;;;;;;4957527;28;8768;-61
2022/03/24 09:04:49;;;;;;;;;54.25;45.00;15.60;30.60;;;;;;4957233;28;8765;-62
2022/03/24 09:07:15;;;;;;;;;56.50;46.75;15.80;31.70;;;;;;4956338;28;8802;-62
2022/03/24 09:09:42;;;;;;;;;61.75;50.25;15.70;30.70;;;;;;4957111;28;8776;-62
2022/03/24 09:12:09;;;;;;;;;57.00;47.00;15.60;30.50;;;;;;4957341;28;8768;-61
2022/03/24 09:14:39;;;;;;;;;60.50;49.00;15.70;30.10;;;;;;4957244;28;8791;-61
2022/03/24 09:17:06;;;;;;;;;50.75;42.50;15.50;30.00;;;;;;4956819;28;8798;-62
2022/03/24 09:19:33;;;;;;;;;53.50;44.00;15.60;30.30;;;;;;4956921;28;8756;-62
2022/03/24 09:22:00;;;;;;;;;58.00;46.25;16.00;30.00;;;;;;4957019;28;8807;-63
2022/03/24 09:24:27;;;;;;;;;50.50;41.75;16.20;29.70;;;;;;4956846;28;8776;-62
2022/03/24 09:26:53;;;;;;;;;56.50;46.00;16.20;29.70;;;;;;4956740;28;8859;-63
2022/03/24 09:29:19;;;;;;;;;53.00;44.00;16.20;29.20;;;;;;4956874;28;8807;-62
2022/03/24 09:31:47;;;;;;;;;54.25;44.75;16.40;28.90;;;;;;4956764;28;8789;-62
2022/03/24 09:34:13;;;;;;;;;59.00;47.25;16.60;29.00;;;;;;4956976;28;8811;-62
2022/03/24 09:36:40;;;;;;;;;57.00;47.50;16.30;28.10;;;;;;4956845;28;8808;-62
2022/03/24 09:39:05;;;;;;;;;58.50;46.25;16.30;28.80;;;;;;4956501;28;8911;-62
2022/03/24 09:41:31;;;;;;;;;55.00;45.75;16.50;28.80;;;;;;4956511;28;8781;-62
2022/03/24 09:43:58;;;;;;;;;55.00;45.25;16.60;28.50;;;;;;4956751;28;8807;-62
2022/03/24 09:46:28;;;;;;;;;52.25;42.75;16.50;28.80;;;;;;4956762;28;9513;-62
2022/03/24 09:48:54;;;;;;;;;54.00;43.75;16.60;28.90;;;;;;4956766;28;8804;-61
2022/03/24 09:51:22;;;;;;;;;55.25;46.75;16.80;28.00;;;;;;4956356;28;8761;-62
2022/03/24 09:53:49;;;;;;;;;55.75;46.50;16.60;27.80;;;;;;4956439;28;8776;-62
2022/03/24 09:56:15;;;;;;;;;53.75;43.75;16.90;27.70;;;;;;4956289;28;8812;-61
2022/03/24 09:58:44;;;;;;;;;57.00;46.25;17.10;28.00;;;;;;4956467;28;8950;-61
2022/03/24 10:01:13;;;;;;;;;50.50;42.50;17.10;27.60;;;;;;4956431;28;8761;-61
2022/03/24 10:03:39;;;;;;;;;56.75;45.00;16.80;27.70;;;;;;4956300;28;8776;-62
2022/03/24 10:06:09;;;;;;;;;58.50;49.00;16.80;27.90;;;;;;4956277;28;8782;-62
2022/03/24 10:08:36;;;;;;;;;58.25;46.50;17.20;27.70;;;;;;4956274;28;8786;-61
2022/03/24 10:11:05;;;;;;;;;55.00;44.75;17.30;27.50;;;;;;4956126;28;8773;-62
2022/03/24 10:13:54;;;;;;;;;57.25;45.50;17.50;27.00;;;;;;4956154;28;8769;-62
2022/03/24 10:16:43;;;;;;;;;50.25;41.25;17.70;25.70;;;;;;4956368;28;8808;-63
2022/03/24 10:19:14;;;;;;;;;57.50;47.25;18.20;25.90;;;;;;4962701;28;8798;-62
2022/03/24 10:21:49;;;;;;;;;54.50;44.00;18.50;25.80;;;;;;4962701;28;8810;-62
2022/03/24 10:24:21;;;;;;;;;53.00;44.75;18.70;25.90;;;;;;4962802;28;8905;-63
2022/03/24 10:27:05;;;;;;;;;53.00;43.75;18.60;24.80;;;;;;4962686;28;8799;-61
2022/03/24 10:29:32;;;;;;;;;53.25;43.50;18.50;24.50;;;;;;4962750;28;8804;-62
2022/03/24 10:32:00;;;;;;;;;52.75;43.25;18.50;24.80;;;;;;4962510;28;8794;-63
2022/03/24 10:34:40;;;;;;;;;44.00;38.50;18.90;23.60;;;;;;4962430;28;8883;-63
2022/03/24 10:37:17;;;;;;;;;48.50;40.75;18.90;22.90;;;;;;4962698;28;8800;-63
2022/03/24 10:40:05;;;;;;;;;46.00;39.00;19.00;23.20;;;;;;4962312;28;8788;-63
2022/03/24 10:42:36;;;;;;;;;40.00;36.33;19.30;23.90;;;;;;4962480;28;8794;-62
2022/03/24 10:45:14;;;;;;;;;36.67;34.00;19.20;22.00;;;;;;4962309;28;8788;-62
2022/03/24 10:47:55;;;;;;;;;41.00;36.75;19.40;21.30;;;;;;4962209;28;8795;-63
2022/03/24 10:50:28;;;;;;;;;42.25;36.00;19.40;22.80;;;;;;4962506;28;8812;-62
2022/03/24 10:52:58;;;;;;;;;45.75;39.00;19.70;22.20;;;;;;4962536;28;8799;-63
2022/03/24 10:55:31;;;;;;;;;39.33;35.33;20.00;21.60;;;;;;4962048;28;8816;-62
2022/03/24 10:57:58;;;;;;;;;46.25;38.25;20.10;22.00;;;;;;4962177;28;8764;-63
2022/03/24 11:00:24;;;;;;;;;42.00;35.50;20.20;21.70;;;;;;4962124;28;8784;-62
2022/03/24 11:02:50;;;;;;;;;43.00;37.00;20.50;21.60;;;;;;4962465;28;9443;-63
2022/03/24 11:05:17;;;;;;;;;40.33;35.67;20.40;20.70;;;;;;4962018;28;8784;-62
2022/03/24 11:07:51;;;;;;;;;45.75;39.50;20.40;20.70;;;;;;4962460;28;9435;-62
2022/03/24 11:10:17;;;;;;;;;39.33;34.33;20.60;21.00;;;;;;4962286;28;8764;-62
2022/03/24 11:12:43;;;;;;;;;34.33;32.33;20.40;20.00;;;;;;4962332;28;8773;-63
2022/03/24 11:15:10;;;;;;;;;38.67;34.33;20.60;19.50;;;;;;4962066;28;8792;-62
2022/03/24 11:17:40;;;;;;;;;45.33;37.67;20.80;19.30;;;;;;4961973;28;8792;-63
2022/03/24 11:20:15;;;;;;;;;44.33;38.33;21.00;20.10;;;;;;4962084;28;8765;-63
2022/03/24 11:22:55;;;;;;;;;36.33;33.00;20.90;20.00;;;;;;4962258;28;8768;-63
2022/03/24 11:25:22;;;;;;;;;43.25;36.50;21.10;19.60;;;;;;4961067;28;8810;-62
2022/03/24 11:27:50;;;;;;;;;40.33;34.67;21.30;20.00;;;;;;4962078;28;8753;-63
2022/03/24 11:30:18;;;;;;;;;39.67;34.33;21.30;20.00;;;;;;4958567;28;8768;-63
2022/03/24 11:32:46;;;;;;;;;33.00;32.00;21.60;19.10;;;;;;4958781;28;8756;-63
2022/03/24 11:35:13;;;;;;;;;33.33;30.00;21.80;18.20;;;;;;4958939;28;9458;-63
2022/03/24 11:37:40;;;;;;;;;33.33;31.33;22.00;17.90;;;;;;4958814;28;8784;-63
2022/03/24 11:40:10;;;;;;;;;38.33;33.33;22.10;18.30;;;;;;4958695;28;8777;-63
2022/03/24 11:42:43;;;;;;;;;32.00;29.00;22.80;18.10;;;;;;4958882;28;9418;-62
2022/03/24 11:45:18;;;;;;;;;28.33;28.33;23.00;17.30;;;;;;4958604;28;8788;-62
2022/03/24 11:48:11;;;;;;;;;25.33;25.33;22.90;17.10;;;;;;4958484;28;8771;-61
2022/03/24 11:50:42;;;;;;;;;21.67;21.67;26.40;15.90;;;;;;4955404;28;8760;-62
2022/03/24 11:53:38;;;;;;;;;21.67;21.67;32.30;14.00;;;;;;4958743;28;8773;-62
2022/03/24 11:56:04;;;;;;;;;26.00;26.00;36.00;12.30;;;;;;4958633;28;8816;-62
2022/03/24 11:58:35;;;;;;;;;29.33;27.67;39.30;12.10;;;;;;4958577;28;8823;-63
2022/03/24 12:01:19;;;;;;;;;25.00;25.00;41.50;11.50;;;;;;4941357;28;9577;-63
2022/03/24 12:03:49;;;;;;;;;22.00;22.00;39.20;10.90;;;;;;4958330;28;8768;-63
2022/03/24 12:06:17;;;;;;;;;22.00;22.00;37.50;11.60;;;;;;4958166;28;8867;-63
2022/03/24 12:08:51;;;;;;;;;16.67;16.67;35.50;11.50;;;;;;4958198;28;8753;-63
2022/03/24 12:11:32;;;;;;;;;22.67;22.67;36.10;11.20;;;;;;4958138;28;9331;-63
2022/03/24 12:13:58;;;;;;;;;22.67;22.67;37.30;11.10;;;;;;4958138;28;8772;-62
2022/03/24 12:16:26;;;;;;;;;23.33;23.33;38.40;11.00;;;;;;4958196;28;8800;-63
2022/03/24 12:18:53;;;;;;;;;21.00;21.00;39.60;11.40;;;;;;4958031;28;8782;-63
2022/03/24 12:21:24;;;;;;;;;22.00;22.00;38.70;10.40;;;;;;4957981;28;8768;-63
2022/03/24 12:24:05;;;;;;;;;20.67;20.67;37.80;11.20;;;;;;4958117;28;8791;-63
2022/03/24 12:26:35;;;;;;;;;20.33;20.33;38.70;10.70;;;;;;4957867;28;8784;-63
2022/03/24 12:29:10;;;;;;;;;19.33;19.33;38.90;10.40;;;;;;4958122;28;8821;-63
2022/03/24 12:32:03;;;;;;;;;21.00;21.00;37.10;10.70;;;;;;4958046;28;8883;-62
2022/03/24 12:34:30;;;;;;;;;25.33;25.33;37.40;10.50;;;;;;4957743;28;8831;-62
2022/03/24 12:36:56;;;;;;;;;21.00;21.00;37.40;11.10;;;;;;4957516;28;8882;-63
2022/03/24 12:39:37;;;;;;;;;20.33;20.33;38.80;10.00;;;;;;4957620;28;8808;-64
2022/03/24 12:42:13;;;;;;;;;21.00;21.00;35.70;11.00;;;;;;4956786;28;9415;-63
2022/03/24 12:44:52;;;;;;;;;20.33;20.33;38.40;11.10;;;;;;4957826;28;8764;-63